Time;durP1;ratioP1;P1;durP2;ratioP2;P2;SDS_P1;SDS_P2;PMS_P1;PMS_P2;Temp;Humidity;BMP_temperature;BMP_pressure;BME280_temperature;BME280_humidity;BME280_pressure;Samples;Min_cycle;Max_cycle;Signal;HPM_P1;HPM_P2
2023/04/26 00:02:34;;;;;;;3.77;1.33;;;5.80;79.30;;;;;;6293827;28;20192;-63
2023/04/26 00:05:36;;;;;;;2.30;1.00;;;5.70;79.50;;;;;;6295143;28;20242;-63
2023/04/26 00:08:37;;;;;;;1.30;1.20;;;5.70;79.80;;;;;;6281256;28;20195;-63
2023/04/26 00:11:38;;;;;;;1.73;1.37;;;5.70;79.70;;;;;;6275882;28;20279;-63
2023/04/26 00:14:39;;;;;;;1.10;1.10;;;5.80;80.00;;;;;;6263811;28;20209;-63
2023/04/26 00:17:39;;;;;;;1.93;1.23;;;5.80;80.30;;;;;;6288926;28;20189;-63
2023/04/26 00:20:40;;;;;;;2.13;1.20;;;5.80;80.80;;;;;;6304511;28;20247;-63
2023/04/26 00:23:41;;;;;;;2.07;1.20;;;5.80;80.80;;;;;;6263681;28;20181;-63
2023/04/26 00:26:42;;;;;;;1.40;1.30;;;5.80;81.10;;;;;;6290462;28;20185;-63
2023/04/26 00:29:43;;;;;;;1.47;1.20;;;5.90;80.80;;;;;;6279022;28;20195;-63
2023/04/26 00:32:43;;;;;;;1.53;0.97;;;5.80;80.60;;;;;;6322760;28;20191;-63
2023/04/26 00:35:44;;;;;;;0.97;0.90;;;5.80;80.80;;;;;;6317555;28;20250;-63
2023/04/26 00:38:45;;;;;;;1.10;1.00;;;5.70;80.10;;;;;;6291511;28;20275;-63
2023/04/26 00:41:47;;;;;;;2.30;1.63;;;5.70;80.20;;;;;;6323984;28;20188;-63
2023/04/26 00:44:49;;;;;;;3.07;2.07;;;5.60;80.60;;;;;;6319396;28;20230;-63
2023/04/26 00:47:50;;;;;;;1.43;1.33;;;5.50;80.70;;;;;;6316506;28;20176;-63
2023/04/26 00:50:51;;;;;;;2.00;1.40;;;5.50;80.40;;;;;;6273119;28;20192;-63
2023/04/26 00:53:52;;;;;;;1.73;1.20;;;5.40;80.70;;;;;;6289828;28;20202;-63
2023/04/26 00:56:53;;;;;;;1.90;0.90;;;5.30;81.10;;;;;;6283597;28;20203;-63
2023/04/26 00:59:54;;;;;;;2.10;1.13;;;5.30;81.20;;;;;;6292017;28;20186;-63
2023/04/26 01:02:54;;;;;;;1.50;1.40;;;5.20;81.40;;;;;;6275994;28;20289;-63
2023/04/26 01:05:56;;;;;;;2.00;1.30;;;5.10;81.90;;;;;;6277406;28;20204;-63
2023/04/26 01:08:59;;;;;;;1.60;1.43;;;5.10;82.00;;;;;;6277096;28;20272;-63
2023/04/26 01:12:00;;;;;;;1.40;1.30;;;5.10;82.60;;;;;;6300981;28;20180;-63
2023/04/26 01:15:01;;;;;;;2.77;1.27;;;5.10;82.80;;;;;;6280579;28;20217;-63
2023/04/26 01:18:02;;;;;;;2.43;1.30;;;5.10;82.50;;;;;;6308111;28;20186;-63
2023/04/26 01:21:03;;;;;;;1.03;0.93;;;5.10;82.20;;;;;;6267815;28;20192;-63
2023/04/26 01:24:05;;;;;;;2.33;1.20;;;5.00;82.20;;;;;;6292118;28;20191;-63
2023/04/26 01:27:06;;;;;;;3.50;1.47;;;5.10;82.60;;;;;;6291162;28;20193;-63
2023/04/26 01:30:09;;;;;;;2.00;1.37;;;5.00;82.50;;;;;;6272093;28;20185;-63
2023/04/26 01:33:10;;;;;;;1.70;1.07;;;5.00;83.00;;;;;;6263190;28;20214;-63
2023/04/26 01:36:11;;;;;;;1.20;1.10;;;5.00;83.60;;;;;;6289462;28;20236;-63
2023/04/26 01:39:12;;;;;;;1.50;1.33;;;4.90;83.40;;;;;;6293150;28;20315;-63
2023/04/26 01:42:13;;;;;;;2.10;1.10;;;4.90;83.10;;;;;;6270659;28;20186;-63
2023/04/26 01:45:13;;;;;;;1.30;1.20;;;4.90;83.30;;;;;;6279845;28;20189;-63
2023/04/26 01:48:14;;;;;;;1.13;0.97;;;4.70;83.20;;;;;;6300799;28;20184;-63
2023/04/26 01:51:15;;;;;;;2.47;1.03;;;4.70;83.40;;;;;;6281734;28;20192;-63
2023/04/26 01:54:16;;;;;;;1.20;1.10;;;4.60;83.60;;;;;;6288955;28;20192;-63
2023/04/26 01:57:16;;;;;;;1.30;1.03;;;4.50;83.80;;;;;;6267904;28;20220;-63
2023/04/26 02:00:17;;;;;;;2.77;1.00;;;4.50;83.90;;;;;;6300976;28;20193;-63
2023/04/26 02:03:18;;;;;;;3.83;1.10;;;4.50;84.10;;;;;;6283923;28;20188;-63
2023/04/26 02:06:20;;;;;;;1.53;1.00;;;4.40;84.30;;;;;;6285670;28;20192;-63
2023/04/26 02:09:20;;;;;;;1.07;1.07;;;4.40;85.10;;;;;;6298985;28;20193;-63
2023/04/26 02:12:21;;;;;;;1.47;1.37;;;4.40;85.00;;;;;;6282332;28;20202;-63
2023/04/26 02:15:22;;;;;;;2.73;1.30;;;4.40;84.70;;;;;;6289738;28;20212;-63
2023/04/26 02:18:23;;;;;;;2.10;1.03;;;4.40;84.90;;;;;;6294438;28;20184;-63
2023/04/26 02:21:24;;;;;;;2.13;1.07;;;4.30;85.30;;;;;;6266340;28;20208;-63
2023/04/26 02:24:25;;;;;;;1.80;1.00;;;4.40;85.40;;;;;;6327345;28;20186;-63
2023/04/26 02:27:26;;;;;;;1.57;0.90;;;4.30;85.30;;;;;;6310345;28;20284;-63
2023/04/26 02:30:27;;;;;;;1.10;1.10;;;4.40;85.30;;;;;;6300192;28;20285;-63
2023/04/26 02:33:28;;;;;;;2.30;1.07;;;4.40;85.20;;;;;;6303291;28;20184;-63
2023/04/26 02:36:29;;;;;;;0.90;0.90;;;4.40;85.30;;;;;;6295604;28;20288;-63
2023/04/26 02:39:30;;;;;;;1.50;1.20;;;4.50;84.80;;;;;;6296331;28;20196;-63
2023/04/26 02:42:31;;;;;;;1.17;1.07;;;4.50;84.30;;;;;;6282218;28;20276;-63
2023/04/26 02:45:31;;;;;;;1.30;0.97;;;4.40;84.00;;;;;;6267599;28;20189;-63
2023/04/26 02:48:32;;;;;;;2.30;1.00;;;4.40;84.00;;;;;;6288269;28;20185;-63
2023/04/26 02:51:33;;;;;;;1.93;1.20;;;4.30;84.10;;;;;;6289574;28;20192;-63
2023/04/26 02:54:33;;;;;;;1.20;1.10;;;4.20;84.70;;;;;;6292716;28;20194;-63
2023/04/26 02:57:34;;;;;;;1.10;1.00;;;4.20;84.60;;;;;;6289123;28;20185;-63
2023/04/26 03:00:35;;;;;;;2.00;1.07;;;4.20;84.90;;;;;;6272336;28;20191;-63
2023/04/26 03:03:36;;;;;;;2.77;1.00;;;4.10;85.10;;;;;;6268966;28;20189;-63
2023/04/26 03:06:36;;;;;;;1.73;1.00;;;4.10;85.10;;;;;;6270257;28;20276;-63
2023/04/26 03:09:37;;;;;;;1.10;1.00;;;4.00;85.10;;;;;;6273932;28;20198;-64
2023/04/26 03:12:38;;;;;;;1.10;1.00;;;4.00;85.50;;;;;;6289620;28;20200;-64
2023/04/26 03:15:42;;;;;;;1.37;1.10;;;4.00;85.20;;;;;;6275843;28;20224;-64
2023/04/26 03:18:43;;;;;;;1.13;1.03;;;3.90;85.30;;;;;;6274090;28;20213;-64
2023/04/26 03:21:43;;;;;;;3.27;1.20;;;3.90;85.50;;;;;;6260304;28;20184;-63
2023/04/26 03:24:45;;;;;;;1.00;1.00;;;3.90;85.70;;;;;;6299034;28;20252;-63
2023/04/26 03:27:46;;;;;;;1.13;1.10;;;3.90;85.50;;;;;;6300835;28;20181;-63
2023/04/26 03:30:48;;;;;;;1.23;1.00;;;3.90;85.40;;;;;;6290405;28;20255;-63
2023/04/26 03:33:49;;;;;;;1.43;1.33;;;3.90;85.00;;;;;;6283721;28;20186;-63
2023/04/26 03:36:50;;;;;;;3.37;1.50;;;3.90;84.40;;;;;;6282035;28;20213;-63
2023/04/26 03:39:52;;;;;;;1.17;1.10;;;3.80;84.70;;;;;;6301198;28;20252;-63
2023/04/26 03:42:53;;;;;;;1.40;1.30;;;3.70;85.10;;;;;;6266738;28;20182;-63
2023/04/26 03:45:54;;;;;;;1.60;1.13;;;3.70;85.40;;;;;;6288035;28;20189;-63
2023/04/26 03:48:54;;;;;;;3.83;1.80;;;3.60;85.70;;;;;;6271704;28;20210;-63
2023/04/26 03:51:56;;;;;;;2.03;1.50;;;3.60;85.70;;;;;;6297894;28;20192;-63
2023/04/26 03:54:56;;;;;;;1.60;1.50;;;3.60;85.70;;;;;;6272149;28;20216;-63
2023/04/26 03:57:57;;;;;;;1.23;1.13;;;3.60;85.80;;;;;;6263666;28;20180;-63
2023/04/26 04:00:58;;;;;;;1.20;1.10;;;3.60;86.00;;;;;;6293209;28;20225;-63
2023/04/26 04:03:58;;;;;;;1.63;1.30;;;3.60;86.50;;;;;;6285150;28;20193;-64
2023/04/26 04:06:59;;;;;;;3.23;1.33;;;3.70;86.70;;;;;;6299296;28;20275;-64
2023/04/26 04:10:00;;;;;;;1.87;1.30;;;3.90;86.60;;;;;;6285607;28;20188;-64
2023/04/26 04:13:01;;;;;;;2.97;1.50;;;3.90;86.20;;;;;;6289207;28;20208;-64
2023/04/26 04:16:03;;;;;;;1.10;1.00;;;4.00;85.80;;;;;;6288457;28;20217;-62
2023/04/26 04:19:04;;;;;;;1.37;1.20;;;4.10;85.70;;;;;;6307064;28;20257;-60
2023/04/26 04:22:04;;;;;;;1.30;1.10;;;4.30;85.50;;;;;;6282698;28;20192;-62
2023/04/26 04:25:12;;;;;;;1.30;1.10;;;4.30;85.30;;;;;;6271467;28;20201;-63
2023/04/26 04:28:14;;;;;;;1.30;1.10;;;4.50;84.70;;;;;;6284836;28;20193;-62
2023/04/26 04:31:14;;;;;;;1.40;1.10;;;4.50;84.30;;;;;;6286095;28;20202;-62
2023/04/26 04:34:15;;;;;;;1.53;1.37;;;4.70;83.70;;;;;;6273343;28;20229;-62
2023/04/26 04:37:16;;;;;;;1.63;1.53;;;4.70;83.40;;;;;;6290026;28;20717;-62
2023/04/26 04:40:17;;;;;;;1.47;1.37;;;4.90;83.50;;;;;;6291437;28;20188;-62
2023/04/26 04:43:19;;;;;;;1.20;1.10;;;5.00;83.10;;;;;;6289521;28;20236;-61
2023/04/26 04:46:20;;;;;;;2.23;1.20;;;5.00;82.30;;;;;;6291173;28;20215;-62
2023/04/26 04:49:22;;;;;;;1.50;1.40;;;5.00;82.20;;;;;;6288395;28;20185;-62
2023/04/26 04:52:23;;;;;;;2.00;1.30;;;5.10;81.90;;;;;;6284233;28;20189;-62
2023/04/26 04:55:23;;;;;;;3.20;1.50;;;5.30;81.20;;;;;;6284208;28;20244;-62
2023/04/26 04:58:24;;;;;;;1.73;1.27;;;5.30;80.80;;;;;;6283736;28;20235;-62
2023/04/26 05:01:25;;;;;;;1.70;1.43;;;5.30;80.30;;;;;;6295013;28;20181;-62
2023/04/26 05:04:25;;;;;;;2.77;1.93;;;5.50;80.70;;;;;;6266806;28;20218;-63
2023/04/26 05:07:26;;;;;;;4.80;1.77;;;5.60;80.50;;;;;;6282032;28;20185;-61
2023/04/26 05:10:27;;;;;;;2.10;1.70;;;5.70;81.20;;;;;;6283147;28;20191;-61
2023/04/26 05:13:27;;;;;;;1.93;1.73;;;5.70;80.90;;;;;;6274060;28;20199;-61
2023/04/26 05:16:28;;;;;;;2.20;1.43;;;5.80;81.10;;;;;;6285412;28;20201;-61
2023/04/26 05:19:29;;;;;;;2.93;2.07;;;5.90;80.20;;;;;;6287708;28;20192;-61
2023/04/26 05:22:29;;;;;;;2.10;1.90;;;5.90;78.80;;;;;;6263539;28;20196;-62
2023/04/26 05:25:30;;;;;;;2.70;2.10;;;6.00;77.70;;;;;;6274140;28;20198;-62
2023/04/26 05:28:31;;;;;;;6.53;2.50;;;6.00;77.20;;;;;;6267375;28;20253;-62
2023/04/26 05:31:32;;;;;;;2.20;2.00;;;6.00;76.40;;;;;;6276185;28;20193;-62
2023/04/26 05:34:32;;;;;;;2.00;1.80;;;6.10;76.90;;;;;;6282880;28;20241;-62
2023/04/26 05:37:33;;;;;;;2.70;2.00;;;6.20;76.70;;;;;;6290793;28;20192;-62
2023/04/26 05:40:34;;;;;;;2.53;2.10;;;6.20;76.80;;;;;;6273431;28;20189;-62
2023/04/26 05:43:35;;;;;;;6.23;2.67;;;6.30;76.60;;;;;;6279176;28;20186;-62
2023/04/26 05:46:36;;;;;;;3.97;2.53;;;6.40;76.70;;;;;;6263935;28;20235;-62
2023/04/26 05:49:37;;;;;;;4.00;2.40;;;6.50;76.20;;;;;;6281798;28;20189;-62
2023/04/26 05:52:37;;;;;;;2.90;2.60;;;6.60;75.50;;;;;;6282563;28;20203;-62
2023/04/26 05:55:38;;;;;;;3.33;2.27;;;6.70;75.30;;;;;;6289825;28;20330;-62
2023/04/26 05:58:39;;;;;;;2.67;2.47;;;6.80;74.80;;;;;;6290366;28;20204;-62
2023/04/26 06:01:39;;;;;;;3.27;2.60;;;6.70;75.60;;;;;;6272673;28;20178;-62
2023/04/26 06:04:40;;;;;;;3.37;2.10;;;6.70;75.60;;;;;;6280382;28;20268;-62
2023/04/26 06:07:41;;;;;;;2.27;2.07;;;6.70;75.30;;;;;;6266693;28;20287;-62
2023/04/26 06:10:41;;;;;;;3.80;2.30;;;6.60;74.80;;;;;;6248744;28;20179;-62
2023/04/26 06:13:42;;;;;;;4.50;2.67;;;6.60;75.30;;;;;;6283240;28;20181;-62
2023/04/26 06:16:42;;;;;;;2.67;2.27;;;6.60;74.70;;;;;;6288324;28;20204;-62
2023/04/26 06:19:43;;;;;;;2.60;2.23;;;6.60;74.20;;;;;;6272025;28;20185;-62
2023/04/26 06:22:44;;;;;;;3.10;2.00;;;6.70;73.90;;;;;;6298720;28;20177;-62
2023/04/26 06:25:45;;;;;;;2.57;1.90;;;6.70;74.20;;;;;;6271734;28;20190;-62
2023/04/26 06:28:46;;;;;;;2.13;2.00;;;6.70;74.30;;;;;;6280705;28;20192;-62
2023/04/26 06:31:46;;;;;;;2.53;2.33;;;6.80;74.50;;;;;;6261416;28;20269;-62
2023/04/26 06:34:47;;;;;;;6.43;2.13;;;7.00;74.80;;;;;;6282921;28;20303;-62
2023/04/26 06:37:48;;;;;;;2.67;2.30;;;7.20;73.30;;;;;;6280225;28;20191;-62
2023/04/26 06:40:48;;;;;;;2.83;2.07;;;7.40;72.80;;;;;;6257179;28;20217;-62
2023/04/26 06:43:49;;;;;;;3.90;2.20;;;7.50;72.70;;;;;;6285423;28;20282;-62
2023/04/26 06:46:53;;;;;;;3.53;2.10;;;7.70;71.70;;;;;;6259020;28;20193;-62
2023/04/26 06:49:54;;;;;;;2.10;1.90;;;7.80;70.20;;;;;;6293302;28;20228;-62
2023/04/26 06:52:55;;;;;;;2.90;2.20;;;8.00;70.40;;;;;;6262225;28;20193;-62
2023/04/26 06:55:56;;;;;;;3.33;2.33;;;8.10;68.70;;;;;;6262978;28;20216;-62
2023/04/26 06:59:00;;;;;;;5.43;2.90;;;8.20;67.70;;;;;;6262317;28;20193;-62
2023/04/26 07:02:01;;;;;;;4.50;2.43;;;8.40;67.30;;;;;;6308461;28;20182;-62
2023/04/26 07:05:03;;;;;;;4.13;2.50;;;8.50;68.10;;;;;;6280372;28;20189;-63
2023/04/26 07:08:03;;;;;;;5.03;2.60;;;8.60;67.30;;;;;;6283643;28;20200;-62
2023/04/26 07:11:09;;;;;;;4.07;2.43;;;8.80;66.40;;;;;;6265630;28;20195;-62
2023/04/26 07:14:10;;;;;;;5.03;2.57;;;8.90;65.70;;;;;;6278505;28;20189;-62
2023/04/26 07:17:11;;;;;;;4.80;2.87;;;9.20;66.80;;;;;;6300569;28;20205;-62
2023/04/26 07:20:14;;;;;;;4.17;2.90;;;9.50;63.60;;;;;;6278112;28;20192;-62
2023/04/26 07:23:15;;;;;;;6.60;2.67;;;9.70;64.00;;;;;;6264971;28;20248;-62
2023/04/26 07:26:15;;;;;;;2.87;2.50;;;9.80;63.50;;;;;;6281842;28;20299;-62
2023/04/26 07:29:17;;;;;;;3.27;2.63;;;9.90;62.50;;;;;;6282598;28;20196;-62
2023/04/26 07:32:18;;;;;;;2.93;2.33;;;10.10;61.80;;;;;;6264749;28;20197;-62
2023/04/26 07:35:19;;;;;;;5.03;2.53;;;10.20;61.60;;;;;;6257909;28;20237;-62
2023/04/26 07:38:20;;;;;;;4.80;2.13;;;10.40;60.90;;;;;;6264747;28;20195;-62
2023/04/26 07:41:21;;;;;;;2.50;1.90;;;10.50;59.30;;;;;;6251607;28;20215;-62
2023/04/26 07:44:21;;;;;;;6.17;2.30;;;10.40;59.50;;;;;;6279480;28;20204;-62
2023/04/26 07:47:22;;;;;;;5.60;2.03;;;10.40;59.80;;;;;;6278351;28;20200;-62
2023/04/26 07:50:23;;;;;;;5.63;2.27;;;10.40;60.00;;;;;;6266423;28;20181;-62
2023/04/26 07:53:24;;;;;;;2.37;1.87;;;10.50;60.00;;;;;;6324662;28;20196;-62
2023/04/26 07:56:25;;;;;;;2.90;1.90;;;10.70;59.70;;;;;;6263988;28;20209;-62
2023/04/26 07:59:26;;;;;;;2.77;2.10;;;10.80;58.90;;;;;;6282444;28;20192;-62
2023/04/26 08:02:26;;;;;;;3.87;1.87;;;10.90;58.00;;;;;;6292175;28;20203;-62
2023/04/26 08:05:27;;;;;;;4.33;1.80;;;11.00;58.70;;;;;;6277761;28;20201;-62
2023/04/26 08:08:28;;;;;;;3.10;2.00;;;11.20;57.90;;;;;;6273933;28;20208;-62
2023/04/26 08:11:28;;;;;;;2.37;2.17;;;11.30;58.10;;;;;;6258220;28;20200;-62
2023/04/26 08:14:29;;;;;;;1.80;1.53;;;11.40;58.50;;;;;;6284799;28;20189;-62
2023/04/26 08:17:31;;;;;;;2.23;1.67;;;11.60;56.90;;;;;;6310551;28;20220;-62
2023/04/26 08:20:31;;;;;;;5.47;1.80;;;11.60;55.90;;;;;;6261197;28;20189;-62
2023/04/26 08:23:34;;;;;;;1.93;1.50;;;11.70;58.00;;;;;;6292572;28;20188;-62
2023/04/26 08:26:35;;;;;;;1.40;1.30;;;12.00;56.90;;;;;;6261678;28;20266;-62
2023/04/26 08:29:36;;;;;;;2.27;1.37;;;12.20;57.50;;;;;;6283672;28;20193;-62
2023/04/26 08:32:37;;;;;;;2.13;1.60;;;12.40;57.70;;;;;;6272573;28;20279;-62
2023/04/26 08:35:37;;;;;;;1.60;1.50;;;12.50;58.40;;;;;;6258940;28;20268;-62
2023/04/26 08:38:38;;;;;;;2.10;1.63;;;12.40;56.10;;;;;;6270709;28;20204;-62
2023/04/26 08:41:43;;;;;;;2.03;1.83;;;12.20;58.50;;;;;;6273743;28;20260;-62
2023/04/26 08:44:45;;;;;;;3.10;1.30;;;12.00;60.40;;;;;;6274242;28;20193;-62
2023/04/26 08:47:49;;;;;;;2.50;1.37;;;11.90;58.60;;;;;;6298089;28;20282;-62
2023/04/26 08:50:52;;;;;;;1.83;1.60;;;11.90;59.60;;;;;;6282096;28;20194;-62
2023/04/26 08:53:55;;;;;;;2.17;1.70;;;11.70;58.70;;;;;;6279537;28;20194;-62
2023/04/26 08:56:58;;;;;;;1.93;1.57;;;11.60;56.20;;;;;;6260964;28;20304;-62
2023/04/26 09:00:00;;;;;;;1.60;1.30;;;11.50;56.30;;;;;;6296017;28;20194;-62
2023/04/26 09:03:01;;;;;;;1.70;1.13;;;11.70;54.30;;;;;;6294025;28;20193;-62
2023/04/26 09:06:02;;;;;;;3.07;1.60;;;11.70;53.30;;;;;;6292604;28;20257;-62
2023/04/26 09:09:07;;;;;;;1.93;1.23;;;11.90;52.90;;;;;;6277930;28;20196;-62
2023/04/26 09:12:08;;;;;;;2.23;1.33;;;11.90;53.90;;;;;;6285359;28;20192;-62
2023/04/26 09:15:09;;;;;;;1.73;0.93;;;12.20;50.80;;;;;;6303447;28;20208;-62
2023/04/26 09:18:21;;;;;;;0.70;0.70;;;12.30;50.40;;;;;;6268760;28;20194;-62
2023/04/26 09:21:22;;;;;;;1.60;0.70;;;12.50;47.40;;;;;;6261850;28;20178;-62
2023/04/26 09:24:23;;;;;;;0.60;0.60;;;12.70;44.50;;;;;;6289372;28;20330;-62
2023/04/26 09:27:44;;;;;;;0.57;0.57;;;12.90;43.10;;;;;;6269954;28;20208;-62
2023/04/26 09:30:44;;;;;;;1.23;0.60;;;12.80;42.20;;;;;;6280693;28;20190;-62
2023/04/26 09:33:59;;;;;;;0.67;0.60;;;12.80;44.50;;;;;;6293691;28;20181;-62
2023/04/26 09:37:00;;;;;;;0.80;0.70;;;12.80;42.80;;;;;;6306236;28;20221;-62
2023/04/26 09:40:03;;;;;;;0.73;0.63;;;12.90;44.20;;;;;;6277605;28;20206;-62
2023/04/26 09:43:07;;;;;;;1.10;0.70;;;12.90;44.10;;;;;;6287447;28;20211;-62
2023/04/26 09:46:08;;;;;;;1.53;0.83;;;13.30;47.00;;;;;;6296732;28;20198;-62
2023/04/26 09:49:08;;;;;;;1.00;0.90;;;13.50;43.70;;;;;;6266213;28;20197;-63
2023/04/26 09:52:09;;;;;;;0.80;0.80;;;13.60;44.50;;;;;;6288409;28;20247;-63
2023/04/26 09:55:10;;;;;;;0.77;0.60;;;14.00;44.40;;;;;;6281049;28;20217;-63
2023/04/26 09:58:11;;;;;;;0.83;0.60;;;14.30;45.10;;;;;;6297611;28;20225;-63
2023/04/26 10:01:15;;;;;;;0.80;0.80;;;14.50;43.40;;;;;;6263860;28;20189;-63
2023/04/26 10:04:16;;;;;;;1.13;0.60;;;14.60;43.50;;;;;;6289893;28;20190;-63
2023/04/26 10:07:23;;;;;;;0.77;0.77;;;14.50;41.90;;;;;;6275202;28;20201;-62
2023/04/26 10:10:24;;;;;;;0.43;0.43;;;14.60;44.30;;;;;;6289125;28;20208;-63
2023/04/26 10:13:24;;;;;;;0.50;0.50;;;14.80;41.40;;;;;;6284864;28;20215;-63
2023/04/26 10:16:25;;;;;;;0.63;0.63;;;14.90;42.00;;;;;;6274370;28;20248;-63
2023/04/26 10:19:26;;;;;;;0.90;0.53;;;15.00;41.00;;;;;;6280498;28;20212;-62
2023/04/26 10:22:32;;;;;;;0.77;0.50;;;15.20;41.50;;;;;;6254559;28;20204;-62
2023/04/26 10:25:38;;;;;;;0.53;0.50;;;15.30;40.80;;;;;;6303314;28;20200;-62
2023/04/26 10:28:47;;;;;;;0.60;0.60;;;15.00;38.20;;;;;;6309229;28;20197;-62
2023/04/26 10:32:07;;;;;;;0.47;0.47;;;15.00;38.00;;;;;;6308110;28;20283;-62
2023/04/26 10:35:12;;;;;;;0.67;0.60;;;14.80;38.20;;;;;;6295323;28;20330;-63
2023/04/26 10:38:14;;;;;;;0.50;0.50;;;15.00;40.20;;;;;;6286807;28;20225;-63
2023/04/26 10:41:30;;;;;;;0.70;0.40;;;15.10;37.30;;;;;;6287119;28;20189;-63
2023/04/26 10:44:41;;;;;;;0.90;0.50;;;15.00;37.30;;;;;;6295119;28;20182;-62
2023/04/26 10:47:42;;;;;;;0.47;0.47;;;14.60;37.00;;;;;;6283121;28;20204;-62
2023/04/26 10:51:00;;;;;;;0.97;0.73;;;14.60;38.30;;;;;;6282323;28;20292;-63
2023/04/26 10:54:03;;;;;;;2.10;0.90;;;14.90;37.70;;;;;;6294161;28;20223;-63
2023/04/26 10:57:03;;;;;;;1.47;0.67;;;14.60;38.90;;;;;;6266995;28;20252;-63
2023/04/26 11:00:15;;;;;;;0.50;0.50;;;14.60;38.70;;;;;;6261364;28;20193;-63
2023/04/26 11:03:16;;;;;;;0.93;0.80;;;14.60;41.30;;;;;;6301315;28;20276;-62
2023/04/26 11:06:17;;;;;;;0.87;0.77;;;14.70;36.80;;;;;;6309150;28;20193;-62
2023/04/26 11:09:38;;;;;;;1.03;0.70;;;14.50;36.80;;;;;;6271440;28;20193;-62
2023/04/26 11:12:41;;;;;;;1.53;0.67;;;14.50;37.60;;;;;;6309666;28;20194;-63
2023/04/26 11:15:41;;;;;;;2.20;0.80;;;14.70;38.60;;;;;;6302082;28;20205;-63
2023/04/26 11:18:46;;;;;;;1.30;0.80;;;15.00;39.10;;;;;;6292689;28;20180;-63
2023/04/26 11:21:47;;;;;;;1.40;0.70;;;15.30;38.40;;;;;;6314719;28;20185;-64
2023/04/26 11:24:49;;;;;;;1.47;0.70;;;15.40;36.70;;;;;;6278158;28;20220;-64
2023/04/26 11:27:49;;;;;;;0.90;0.70;;;15.40;35.50;;;;;;6285743;28;20281;-63
2023/04/26 11:30:50;;;;;;;0.63;0.63;;;15.00;36.00;;;;;;6277832;28;20254;-63
2023/04/26 11:33:51;;;;;;;1.03;0.77;;;15.00;36.90;;;;;;6294283;28;20204;-64
2023/04/26 11:36:52;;;;;;;0.50;0.50;;;15.00;36.50;;;;;;6271171;28;20271;-64
2023/04/26 11:39:52;;;;;;;1.03;0.60;;;14.80;37.00;;;;;;6282118;28;20292;-63
2023/04/26 11:42:53;;;;;;;1.33;0.50;;;14.80;36.00;;;;;;6288599;28;20197;-63
2023/04/26 11:46:01;;;;;;;0.70;0.70;;;14.80;36.60;;;;;;6265400;28;20188;-62
2023/04/26 11:49:01;;;;;;;0.57;0.57;;;15.00;35.70;;;;;;6284327;28;20189;-62
2023/04/26 11:52:07;;;;;;;1.13;0.57;;;14.90;37.20;;;;;;6277272;28;20201;-62
2023/04/26 11:55:09;;;;;;;0.87;0.73;;;15.20;36.90;;;;;;6293608;28;20228;-62
2023/04/26 11:58:13;;;;;;;0.60;0.60;;;15.70;37.00;;;;;;6294841;28;20249;-62
2023/04/26 12:01:28;;;;;;;2.17;0.70;;;16.20;35.80;;;;;;6251910;28;20179;-62
2023/04/26 12:04:29;;;;;;;0.70;0.70;;;16.40;32.80;;;;;;6297581;28;20182;-63
2023/04/26 12:07:36;;;;;;;0.67;0.67;;;16.40;33.40;;;;;;6299360;28;20196;-63
2023/04/26 12:10:37;;;;;;;2.37;0.60;;;16.70;33.20;;;;;;6282249;28;20190;-63
2023/04/26 12:13:38;;;;;;;1.53;0.60;;;17.00;33.90;;;;;;6283558;28;20218;-63
2023/04/26 12:16:41;;;;;;;1.13;0.60;;;17.50;31.50;;;;;;6286911;28;20224;-63
2023/04/26 12:19:42;;;;;;;0.50;0.50;;;17.60;31.70;;;;;;6294749;28;20206;-63
2023/04/26 12:22:59;;;;;;;0.80;0.70;;;17.20;31.10;;;;;;6285433;28;20182;-63
2023/04/26 12:26:02;;;;;;;1.00;0.70;;;16.60;32.30;;;;;;6276488;28;20194;-63
2023/04/26 12:29:03;;;;;;;1.03;0.47;;;16.40;31.80;;;;;;6266613;28;20189;-63
2023/04/26 12:32:04;;;;;;;1.13;0.70;;;16.50;32.90;;;;;;6263389;28;20190;-63
2023/04/26 12:35:05;;;;;;;0.90;0.73;;;17.20;32.20;;;;;;6304970;28;20228;-63
2023/04/26 12:38:06;;;;;;;1.37;0.70;;;17.80;31.00;;;;;;6310743;28;20189;-63
2023/04/26 12:41:07;;;;;;;2.27;0.77;;;17.80;32.50;;;;;;6268737;28;20199;-64
2023/04/26 12:44:08;;;;;;;1.13;0.70;;;17.60;32.00;;;;;;6259529;28;20273;-64
2023/04/26 12:47:09;;;;;;;3.17;0.70;;;17.30;33.70;;;;;;6297596;28;20192;-63
2023/04/26 12:50:11;;;;;;;0.70;0.70;;;17.00;31.20;;;;;;6300704;28;20188;-63
2023/04/26 12:53:12;;;;;;;0.83;0.60;;;16.60;31.10;;;;;;6295823;28;20186;-63
2023/04/26 12:56:15;;;;;;;0.70;0.60;;;16.20;31.00;;;;;;6292157;28;20216;-63
2023/04/26 12:59:15;;;;;;;0.60;0.60;;;15.80;32.80;;;;;;6283411;28;20186;-63
2023/04/26 13:02:16;;;;;;;1.13;0.93;;;15.60;35.80;;;;;;6279437;28;20242;-63
2023/04/26 13:05:17;;;;;;;1.17;0.73;;;15.50;35.80;;;;;;6274914;28;20247;-63
2023/04/26 13:08:18;;;;;;;0.87;0.70;;;15.40;34.30;;;;;;6290869;28;20192;-63
2023/04/26 13:11:18;;;;;;;0.70;0.70;;;15.20;33.60;;;;;;6298229;28;20284;-64
2023/04/26 13:14:21;;;;;;;0.70;0.70;;;15.10;34.40;;;;;;6302783;28;20184;-63
2023/04/26 13:17:24;;;;;;;1.53;0.90;;;15.00;35.90;;;;;;6263580;28;20217;-62
2023/04/26 13:20:25;;;;;;;1.73;0.80;;;15.00;34.40;;;;;;6281067;28;20208;-62
2023/04/26 13:23:26;;;;;;;0.83;0.83;;;15.00;35.60;;;;;;6280081;28;20206;-63
2023/04/26 13:26:27;;;;;;;1.03;0.80;;;15.00;35.80;;;;;;6284377;28;20199;-64
2023/04/26 13:29:28;;;;;;;2.37;1.10;;;15.20;34.70;;;;;;6278666;28;20197;-66
2023/04/26 13:32:28;;;;;;;2.80;1.10;;;15.20;36.80;;;;;;6300790;28;20192;-63
2023/04/26 13:35:29;;;;;;;0.83;0.80;;;15.40;34.60;;;;;;6285402;28;20264;-63
2023/04/26 13:38:30;;;;;;;1.17;0.80;;;15.60;33.80;;;;;;6287642;28;20190;-63
2023/04/26 13:41:33;;;;;;;1.83;0.80;;;15.80;33.20;;;;;;6281805;28;20182;-62
2023/04/26 13:44:34;;;;;;;0.60;0.60;;;16.20;33.30;;;;;;6276344;28;20188;-63
2023/04/26 13:47:35;;;;;;;1.10;1.00;;;18.90;32.60;;;;;;6264440;28;20306;-63
2023/04/26 13:50:36;;;;;;;2.53;1.13;;;22.00;28.30;;;;;;6283394;28;20291;-64
2023/04/26 13:53:37;;;;;;;0.83;0.80;;;23.70;26.80;;;;;;6275392;28;20183;-64
2023/04/26 13:56:38;;;;;;;2.93;0.93;;;;;;;;;;6294157;28;20230;-63
2023/04/26 13:59:39;;;;;;;1.20;0.90;;;22.00;27.20;;;;;;6280173;28;20192;-63
2023/04/26 14:02:40;;;;;;;4.47;1.53;;;21.10;26.90;;;;;;6266722;28;20189;-63
2023/04/26 14:05:40;;;;;;;1.80;0.73;;;20.50;28.60;;;;;;6263830;28;20210;-63
2023/04/26 14:08:41;;;;;;;2.60;0.90;;;19.90;29.50;;;;;;6264612;28;20193;-63
2023/04/26 14:11:41;;;;;;;1.43;0.80;;;20.40;30.30;;;;;;6292603;28;20284;-63
2023/04/26 14:14:42;;;;;;;1.53;0.90;;;20.20;28.30;;;;;;6294500;28;20190;-63
2023/04/26 14:17:45;;;;;;;1.57;0.70;;;19.70;28.00;;;;;;6276966;28;20300;-63
2023/04/26 14:20:47;;;;;;;3.80;1.00;;;19.50;29.00;;;;;;6288957;28;20247;-63
2023/04/26 14:23:47;;;;;;;0.73;0.73;;;19.10;28.70;;;;;;6295702;28;20243;-62
2023/04/26 14:26:48;;;;;;;1.20;0.90;;;18.70;30.30;;;;;;6293309;28;20197;-61
2023/04/26 14:29:49;;;;;;;1.63;0.93;;;18.30;29.70;;;;;;6288473;28;20210;-62
2023/04/26 14:32:50;;;;;;;2.57;1.10;;;17.90;31.90;;;;;;6280787;28;20201;-61
2023/04/26 14:35:50;;;;;;;1.00;0.90;;;17.60;29.70;;;;;;6276505;28;20240;-62
2023/04/26 14:38:51;;;;;;;1.27;0.83;;;17.50;31.10;;;;;;6265395;28;20211;-62
2023/04/26 14:41:52;;;;;;;1.53;1.03;;;17.20;30.40;;;;;;6299529;28;20196;-61
2023/04/26 14:44:52;;;;;;;1.07;0.90;;;17.20;30.10;;;;;;6281633;28;20184;-61
2023/04/26 14:47:53;;;;;;;1.80;0.90;;;17.50;30.20;;;;;;6262471;28;20192;-61
2023/04/26 14:50:58;;;;;;;1.17;0.90;;;18.00;29.20;;;;;;6267095;28;20225;-61
2023/04/26 14:53:59;;;;;;;2.93;1.00;;;17.90;29.90;;;;;;6320574;28;20192;-61
2023/04/26 14:56:59;;;;;;;1.20;0.80;;;18.30;30.70;;;;;;6301308;28;20216;-63
2023/04/26 15:00:05;;;;;;;1.00;0.90;;;;;;;;;;6279275;28;20258;-63
2023/04/26 15:03:06;;;;;;;1.37;1.00;;;;;;;;;;6298363;28;20257;-62
2023/04/26 15:06:11;;;;;;;2.87;1.03;;;;;;;;;;6291673;28;20197;-63
2023/04/26 15:09:12;;;;;;;1.80;1.10;;;;;;;;;;6292648;28;20204;-63
2023/04/26 15:12:13;;;;;;;1.23;1.10;;;;;;;;;;6288453;28;20196;-62
2023/04/26 15:15:14;;;;;;;1.03;1.00;;;;;;;;;;6303693;28;20221;-62
2023/04/26 15:18:15;;;;;;;2.37;1.10;;;;;;;;;;6302938;28;20211;-63
2023/04/26 15:21:16;;;;;;;1.90;0.73;;;;;;;;;;6284698;28;20186;-63
2023/04/26 15:24:17;;;;;;;1.80;1.20;;;;;;;;;;6289392;28;20192;-63
2023/04/26 15:27:19;;;;;;;1.10;1.00;;;;;;;;;;6317268;28;20228;-62
2023/04/26 15:30:20;;;;;;;1.97;1.07;;;;;;;;;;6299023;28;20197;-62
2023/04/26 15:33:21;;;;;;;0.90;0.80;;;;;;;;;;6273889;28;20248;-62
2023/04/26 15:36:22;;;;;;;1.97;1.00;;;;;;;;;;6294152;28;20300;-62
2023/04/26 15:39:23;;;;;;;2.30;1.17;;;;;;;;;;6307686;28;20285;-62
2023/04/26 15:42:24;;;;;;;1.03;1.00;;;;;;;;;;6286871;28;20193;-62
2023/04/26 15:45:25;;;;;;;1.20;1.10;;;;;;;;;;6304688;28;20200;-62
2023/04/26 15:48:26;;;;;;;1.33;1.10;;;;;;;;;;6301576;28;20198;-62
2023/04/26 15:51:27;;;;;;;1.27;1.00;;;;;;;;;;6311997;28;20192;-62
2023/04/26 15:54:28;;;;;;;2.07;1.20;;;;;;;;;;6289636;28;20274;-62
2023/04/26 15:57:29;;;;;;;1.10;0.90;;;;;;;;;;6310812;28;20225;-62
2023/04/26 16:00:31;;;;;;;2.13;1.27;;;;;;;;;;6295655;28;20190;-62
2023/04/26 16:03:32;;;;;;;2.80;1.30;;;;;;;;;;6308541;28;20201;-62